Time;durP1;ratioP1;P1;durP2;ratioP2;P2;SDS_P1;SDS_P2;PMS_P1;PMS_P2;Temp;Humidity;BMP_temperature;BMP_pressure;BME280_temperature;BME280_humidity;BME280_pressure;Samples;Min_cycle;Max_cycle;Signal;HPM_P1;HPM_P2
2021/06/29 00:00:06;;;;;;;8.35;5.50;;;;;;;22.08;54.82;100082.53;5052671;27;96868;-91
2021/06/29 00:02:31;;;;;;;9.10;6.40;;;;;;;22.00;54.73;100072.47;5052017;27;97069;-91
2021/06/29 00:04:57;;;;;;;10.27;6.15;;;;;;;21.91;55.00;100063.44;5056386;27;101302;-92
2021/06/29 00:07:23;;;;;;;9.35;6.45;;;;;;;21.92;55.60;100064.28;5039843;27;97671;-91
2021/06/29 00:09:48;;;;;;;8.88;5.65;;;;;;;21.95;55.00;100063.16;5037145;27;97104;-92
2021/06/29 00:12:14;;;;;;;8.48;5.90;;;;;;;21.86;55.31;100059.44;5039324;27;100220;-93
2021/06/29 00:14:40;;;;;;;8.13;5.47;;;;;;;21.86;55.49;100062.13;5057139;27;100662;-91
2021/06/29 00:17:08;;;;;;;13.50;5.85;;;;;;;21.84;54.83;100054.22;5055271;27;97108;-91
2021/06/29 00:19:33;;;;;;;9.48;6.50;;;;;;;21.90;54.50;100068.88;5056688;27;96814;-92
2021/06/29 00:21:59;;;;;;;8.32;5.95;;;;;;;22.09;54.27;100068.16;5055952;27;98296;-91
2021/06/29 00:24:24;;;;;;;8.20;5.90;;;;;;;21.73;55.33;100064.13;5056234;27;101017;-92
2021/06/29 00:26:50;;;;;;;7.85;5.78;;;;;;;21.58;56.25;100061.78;5056522;27;97133;-91
2021/06/29 00:29:16;;;;;;;10.23;5.82;;;;;;;21.50;56.67;100055.38;5035566;27;97059;-91
2021/06/29 00:31:41;;;;;;;10.93;5.70;;;;;;;21.60;55.57;100059.00;5056343;27;97655;-91
2021/06/29 00:34:07;;;;;;;9.57;6.18;;;;;;;21.57;55.26;100056.59;5038880;27;101380;-92
2021/06/29 00:36:33;;;;;;;10.40;5.72;;;;;;;21.56;55.22;100053.06;5049543;27;96879;-91
2021/06/29 00:38:58;;;;;;;8.70;6.18;;;;;;;21.58;55.05;100048.41;5045928;27;97039;-91
2021/06/29 00:41:24;;;;;;;7.88;6.15;;;;;;;21.60;54.63;100045.63;5055197;27;99265;-91
2021/06/29 00:43:51;;;;;;;7.20;5.95;;;;;;;21.56;54.79;100046.88;5035759;27;101162;-92
2021/06/29 00:46:18;;;;;;;10.10;6.28;;;;;;;21.60;54.60;100041.13;5032662;27;97222;-91
2021/06/29 00:48:44;;;;;;;12.55;7.57;;;;;;;21.59;54.27;100033.28;5075210;27;97410;-91
2021/06/29 00:51:18;;;;;;;12.15;6.03;;;;;;;21.50;54.84;100032.22;5041212;27;101305;-91
2021/06/29 00:53:45;;;;;;;7.38;6.00;;;;;;;21.55;54.57;100040.66;5042686;27;101515;-91
2021/06/29 00:56:14;;;;;;;10.07;6.22;;;;;;;21.44;55.22;100036.25;5042075;27;96942;-93
2021/06/29 00:58:48;;;;;;;10.32;6.05;;;;;;;21.42;55.09;100024.84;5039677;27;97248;-90
2021/06/29 01:01:15;;;;;;;10.50;6.00;;;;;;;21.44;54.66;100030.91;5040328;27;100580;-91
2021/06/29 01:03:41;;;;;;;7.50;5.90;;;;;;;21.39;55.00;100018.94;5039397;27;101005;-91
2021/06/29 01:06:10;;;;;;;8.23;6.50;;;;;;;21.51;54.40;100022.38;5057424;27;96939;-91
2021/06/29 01:08:36;;;;;;;8.02;6.35;;;;;;;21.34;55.09;100021.09;5039444;27;96876;-90
2021/06/29 01:11:02;;;;;;;8.68;6.50;;;;;;;21.29;54.83;100012.63;5074143;27;98365;-88
2021/06/29 01:13:42;;;;;;;8.23;6.63;;;;;;;21.29;55.45;100018.78;5055630;27;99959;-90
2021/06/29 01:16:08;;;;;;;9.95;6.95;;;;;;;21.20;55.49;100028.41;5042861;27;97296;-90
2021/06/29 01:18:35;;;;;;;9.10;6.30;;;;;;;21.21;55.81;100014.13;5052595;27;97073;-91
2021/06/29 01:21:01;;;;;;;10.07;6.30;;;;;;;21.07;55.71;100016.25;5058771;27;101518;-90
2021/06/29 01:23:29;;;;;;;8.13;6.72;;;;;;;21.16;55.51;100016.31;5039032;27;101818;-92
2021/06/29 01:26:29;;;;;;;7.10;6.15;;;;;;;21.07;55.87;100016.25;5037333;27;97110;-91
2021/06/29 01:31:23;;;;;;;7.50;6.28;;;;;;;20.97;55.94;100006.34;5057962;27;101309;-92
2021/06/29 01:33:49;;;;;;;10.20;6.88;;;;;;;20.92;56.27;100007.69;5041294;27;101771;-91
2021/06/29 01:36:17;;;;;;;9.20;6.68;;;;;;;20.96;56.38;100001.09;5056868;27;97174;-91
2021/06/29 01:38:43;;;;;;;7.35;6.60;;;;;;;21.00;56.39;99997.19;5058390;27;97147;-91
2021/06/29 01:41:13;;;;;;;9.57;7.13;;;;;;;20.92;56.26;99997.84;5055059;27;101340;-91
2021/06/29 01:46:26;;;;;;;9.07;6.70;;;;;;;20.87;56.32;100001.88;5061131;27;97173;-91
2021/06/29 01:48:53;;;;;;;10.05;6.90;;;;;;;20.87;56.92;100007.22;5056438;27;97044;-92
2021/06/29 01:51:20;;;;;;;7.43;6.57;;;;;;;20.78;56.84;100004.31;5037941;27;100703;-91
2021/06/29 01:53:48;;;;;;;8.82;7.00;;;;;;;20.67;57.21;99998.16;5055605;27;99892;-92
2021/06/29 01:56:16;;;;;;;9.05;7.25;;;;;;;20.70;57.21;99993.41;5041651;27;96700;-91
2021/06/29 01:58:48;;;;;;;12.45;7.32;;;;;;;20.75;57.21;100006.38;5059045;27;97211;-91
2021/06/29 02:01:13;;;;;;;8.63;6.75;;;;;;;20.63;57.60;99996.72;5057582;27;100220;-91
2021/06/29 02:03:39;;;;;;;9.38;7.25;;;;;;;20.57;57.59;100004.25;5055221;27;100225;-92
2021/06/29 02:06:04;;;;;;;8.82;7.18;;;;;;;20.53;57.55;99996.59;5039697;27;96890;-90
2021/06/29 02:08:30;;;;;;;8.70;6.78;;;;;;;20.53;58.09;99991.28;5055830;27;96664;-91
2021/06/29 02:10:56;;;;;;;10.10;7.80;;;;;;;20.57;58.08;100000.72;5061146;27;101559;-92
2021/06/29 02:13:21;;;;;;;10.35;7.82;;;;;;;20.60;57.98;99999.63;5063439;27;101435;-91
2021/06/29 02:15:47;;;;;;;9.65;7.72;;;;;;;20.58;57.89;100000.59;5039504;27;97494;-92
2021/06/29 02:18:13;;;;;;;9.45;7.80;;;;;;;20.48;58.54;100004.13;5038624;27;96899;-92
2021/06/29 02:20:38;;;;;;;13.15;7.75;;;;;;;20.52;58.18;100003.75;5042620;27;100096;-90
2021/06/29 02:23:05;;;;;;;17.02;9.30;;;;;;;20.42;58.47;100001.91;5057994;27;101360;-90
2021/06/29 02:25:31;;;;;;;9.35;7.60;;;;;;;20.42;58.38;100004.56;5040187;27;97405;-91
2021/06/29 02:27:56;;;;;;;13.85;7.80;;;;;;;20.39;58.50;100002.16;5044377;27;96855;-91
2021/06/29 02:30:22;;;;;;;13.93;7.45;;;;;;;20.46;58.33;99996.22;5042362;27;100196;-91
2021/06/29 02:32:48;;;;;;;10.32;7.95;;;;;;;20.45;58.19;100005.19;5054998;27;98252;-91
2021/06/29 02:35:13;;;;;;;8.98;7.30;;;;;;;20.37;58.42;100006.78;5053986;27;96951;-92
2021/06/29 02:37:39;;;;;;;12.18;7.88;;;;;;;20.25;58.92;100005.94;5049483;27;96953;-91
2021/06/29 02:40:06;;;;;;;8.95;6.97;;;;;;;20.22;58.87;100000.88;5037400;27;100933;-90
2021/06/29 02:42:32;;;;;;;10.80;7.93;;;;;;;20.32;58.84;100002.66;5029280;27;102032;-91
2021/06/29 02:45:05;;;;;;;10.93;8.60;;;;;;;20.29;58.89;100000.22;5058460;27;96921;-91
2021/06/29 02:47:30;;;;;;;13.23;8.23;;;;;;;20.23;59.20;99992.72;5055549;27;96700;-91
2021/06/29 02:49:56;;;;;;;10.38;7.55;;;;;;;20.30;58.89;99993.94;5035907;27;101563;-92
2021/06/29 02:52:22;;;;;;;10.07;8.30;;;;;;;20.27;58.90;99993.31;5036814;27;101058;-91
2021/06/29 02:54:47;;;;;;;13.55;8.07;;;;;;;20.24;59.25;100001.56;5039989;27;97078;-91
2021/06/29 02:57:13;;;;;;;10.65;8.95;;;;;;;20.16;59.33;99999.53;5028211;27;96983;-91
2021/06/29 02:59:38;;;;;;;12.05;7.22;;;;;;;20.18;59.50;100002.06;5036651;27;101441;-91
2021/06/29 03:02:04;;;;;;;13.07;8.32;;;;;;;20.23;59.35;100003.38;5050263;27;100925;-90
2021/06/29 03:04:29;;;;;;;12.90;8.55;;;;;;;20.14;60.18;100006.78;5052152;27;97043;-90
2021/06/29 03:06:55;;;;;;;9.32;7.72;;;;;;;20.21;59.79;99993.81;5046527;27;97035;-91
2021/06/29 03:09:21;;;;;;;10.40;8.82;;;;;;;20.29;59.49;99994.91;5032581;27;100502;-91
2021/06/29 03:11:46;;;;;;;12.95;9.05;;;;;;;20.18;59.64;99997.56;5032192;27;101092;-92
2021/06/29 03:14:12;;;;;;;14.23;9.13;;;;;;;20.10;60.00;99998.19;5074031;27;96803;-91
2021/06/29 03:16:37;;;;;;;10.90;9.63;;;;;;;20.09;59.86;99996.47;5037126;27;97161;-88
2021/06/29 03:19:03;;;;;;;10.90;9.13;;;;;;;20.36;59.29;100000.59;5050586;27;100174;-91
2021/06/29 03:21:29;;;;;;;9.43;8.30;;;;;;;20.28;59.77;99997.72;5036582;27;101179;-89
2021/06/29 03:23:55;;;;;;;10.32;8.80;;;;;;;20.48;59.06;99996.13;5035408;27;96888;-91
2021/06/29 03:26:20;;;;;;;10.80;8.70;;;;;;;20.47;59.26;99994.41;5027545;27;97017;-91
2021/06/29 03:28:46;;;;;;;12.23;9.00;;;;;;;20.53;59.32;99988.59;5057010;27;99974;-91
2021/06/29 03:31:12;;;;;;;9.95;8.20;;;;;;;20.55;59.36;99987.50;5057116;27;97971;-91
2021/06/29 03:33:37;;;;;;;12.00;8.65;;;;;;;20.59;59.09;99980.09;5053208;27;97139;-91
2021/06/29 03:36:03;;;;;;;9.57;8.48;;;;;;;20.60;59.34;99983.66;5020554;27;96992;-91
2021/06/29 03:38:29;;;;;;;11.00;9.07;;;;;;;20.64;59.15;99985.91;5037053;27;101997;-90
2021/06/29 03:40:54;;;;;;;11.25;9.45;;;;;;;20.77;59.07;99986.63;5053334;27;100181;-90
2021/06/29 03:43:20;;;;;;;14.65;9.07;;;;;;;20.83;58.88;99985.28;5052704;27;96991;-91
2021/06/29 03:45:46;;;;;;;13.25;8.68;;;;;;;20.95;58.59;99986.94;5065429;27;97220;-91
2021/06/29 03:48:11;;;;;;;13.57;9.10;;;;;;;21.11;58.08;99983.81;5052854;27;100927;-90
2021/06/29 03:50:37;;;;;;;13.60;9.27;;;;;;;21.05;58.37;99986.16;5056709;27;100187;-90
2021/06/29 03:53:03;;;;;;;11.00;9.43;;;;;;;21.13;58.43;99989.03;5074383;27;97188;-90
2021/06/29 03:55:29;;;;;;;15.45;9.25;;;;;;;21.28;57.74;99990.41;5056643;27;96903;-90
2021/06/29 03:57:56;;;;;;;14.20;9.38;;;;;;;21.36;57.33;99995.13;5056681;27;97729;-90
2021/06/29 04:00:22;;;;;;;11.40;10.23;;;;;;;21.36;57.13;99992.47;5036038;27;99379;-90
2021/06/29 04:02:48;;;;;;;12.20;9.43;;;;;;;21.22;57.97;99981.09;5051756;27;96704;-90
2021/06/29 04:05:17;;;;;;;11.80;10.00;;;;;;;21.44;57.27;99992.69;5047851;27;96908;-89
2021/06/29 04:07:43;;;;;;;12.25;10.20;;;;;;;21.40;57.60;99999.25;5039911;27;101276;-90
2021/06/29 04:10:09;;;;;;;11.90;9.95;;;;;;;21.41;57.50;100007.16;5056142;27;98370;-87
2021/06/29 04:12:34;;;;;;;10.93;9.70;;;;;;;21.26;57.66;100008.38;5053243;27;96927;-89
2021/06/29 04:15:00;;;;;;;19.52;10.15;;;;;;;21.42;57.57;100013.31;5039679;27;96898;-90
2021/06/29 04:17:25;;;;;;;14.30;9.60;;;;;;;21.39;58.00;100011.75;5052745;27;101683;-90
2021/06/29 04:19:51;;;;;;;14.10;10.10;;;;;;;21.50;57.33;100018.00;5045165;27;97940;-91
2021/06/29 04:22:17;;;;;;;11.73;10.05;;;;;;;21.70;57.02;100019.84;5071581;27;97164;-91
2021/06/29 04:24:42;;;;;;;12.32;10.85;;;;;;;21.51;57.51;100014.38;5035563;27;96944;-90
2021/06/29 04:27:08;;;;;;;15.13;9.70;;;;;;;21.64;57.35;100023.03;5032972;27;101694;-88
2021/06/29 04:29:33;;;;;;;10.57;9.48;;;;;;;21.65;57.33;100016.72;5064075;27;98493;-90
2021/06/29 04:31:59;;;;;;;10.88;9.20;;;;;;;21.85;56.96;100015.03;5052029;27;97403;-91
2021/06/29 04:34:24;;;;;;;15.00;10.40;;;;;;;21.96;56.72;100009.56;5043292;27;96757;-90
2021/06/29 04:36:50;;;;;;;14.98;10.65;;;;;;;22.01;56.47;100014.53;5036390;27;100700;-90
2021/06/29 04:39:16;;;;;;;15.32;10.63;;;;;;;22.06;56.03;100006.97;5038460;27;101226;-90
2021/06/29 04:41:41;;;;;;;16.98;11.98;;;;;;;22.29;55.76;100008.50;5035870;27;97028;-90
2021/06/29 04:44:07;;;;;;;16.52;10.95;;;;;;;22.41;55.51;100011.09;5036180;27;97263;-90
2021/06/29 04:46:33;;;;;;;14.15;10.85;;;;;;;22.38;55.65;100017.53;5071061;27;97989;-90
2021/06/29 04:48:59;;;;;;;13.13;10.45;;;;;;;22.58;55.65;100013.94;5072906;27;100892;-90
2021/06/29 04:51:25;;;;;;;12.60;10.20;;;;;;;22.66;55.54;99999.03;5038039;27;96638;-90
2021/06/29 04:53:50;;;;;;;16.88;11.13;;;;;;;22.90;55.05;100007.53;5035814;27;97073;-89
2021/06/29 04:56:19;;;;;;;12.00;9.85;;;;;;;22.92;55.04;100007.38;5032088;27;101077;-89
2021/06/29 04:58:52;;;;;;;14.50;11.05;;;;;;;22.93;54.81;100007.25;5055989;27;98365;-90
2021/06/29 05:01:18;;;;;;;12.88;10.57;;;;;;;23.13;54.88;100002.81;5052355;27;96975;-88
2021/06/29 05:03:43;;;;;;;12.10;10.50;;;;;;;23.34;54.11;100004.50;5030206;27;96917;-88
2021/06/29 05:06:09;;;;;;;15.48;11.25;;;;;;;23.52;54.10;99994.72;5034397;27;101829;-89
2021/06/29 05:08:35;;;;;;;15.43;10.63;;;;;;;23.80;53.38;99998.38;5052951;27;98235;-89
2021/06/29 05:11:00;;;;;;;15.50;11.98;;;;;;;23.89;53.37;100000.19;5061224;27;97122;-89
2021/06/29 05:13:26;;;;;;;13.05;11.38;;;;;;;23.97;52.68;99999.47;5043298;27;96856;-89
2021/06/29 05:15:51;;;;;;;15.45;12.32;;;;;;;24.21;52.25;99996.25;5053280;27;101551;-88
2021/06/29 05:18:17;;;;;;;14.93;12.20;;;;;;;24.26;52.35;99998.47;5034551;27;101513;-89
2021/06/29 05:20:43;;;;;;;15.80;12.60;;;;;;;24.45;51.93;99994.91;5035836;27;97453;-89
2021/06/29 05:23:09;;;;;;;12.80;11.23;;;;;;;24.57;51.82;99989.19;5054653;27;97050;-89
2021/06/29 05:25:34;;;;;;;14.80;11.80;;;;;;;24.77;51.64;99983.69;5033909;27;101553;-88
2021/06/29 05:28:00;;;;;;;17.65;10.65;;;;;;;24.96;51.40;99982.69;5063857;27;97264;-89
2021/06/29 05:30:26;;;;;;;15.80;11.30;;;;;;;25.24;51.20;99980.81;5032567;27;96627;-89
2021/06/29 05:32:52;;;;;;;12.95;11.57;;;;;;;25.43;50.70;99969.91;5047783;27;97089;-90
2021/06/29 05:35:17;;;;;;;16.17;11.30;;;;;;;25.52;50.72;99971.63;5042095;27;100991;-90
2021/06/29 05:37:43;;;;;;;15.95;11.50;;;;;;;25.71;50.06;99969.72;5053159;27;98257;-90
2021/06/29 05:40:09;;;;;;;12.88;11.50;;;;;;;25.83;49.77;99970.34;5034050;27;97114;-90
2021/06/29 05:42:35;;;;;;;21.95;12.48;;;;;;;26.11;48.91;99968.31;5058761;27;96888;-88
2021/06/29 05:45:00;;;;;;;18.75;11.13;;;;;;;26.40;48.38;99967.94;5052889;27;101189;-90
2021/06/29 05:47:26;;;;;;;20.23;11.13;;;;;;;26.82;48.16;99958.97;5031111;27;100446;-90
2021/06/29 05:49:52;;;;;;;15.25;10.77;;;;;;;27.07;47.22;99949.06;5055849;27;96744;-90
2021/06/29 05:52:18;;;;;;;17.05;11.38;;;;;;;27.14;46.88;99958.19;5047109;27;97119;-89
2021/06/29 05:54:44;;;;;;;13.35;10.35;;;;;;;27.78;46.16;99947.53;5027035;27;100664;-90
2021/06/29 05:57:12;;;;;;;13.07;10.50;;;;;;;28.30;45.24;99943.47;5066887;27;98301;-89
2021/06/29 05:59:37;;;;;;;11.50;9.75;;;;;;;28.69;44.23;99948.03;5057944;27;97078;-88
2021/06/29 06:02:03;;;;;;;13.98;9.68;;;;;;;28.82;44.05;99953.66;5041387;27;96992;-89
2021/06/29 06:04:29;;;;;;;12.98;10.30;;;;;;;29.08;43.60;99953.34;5038455;27;101127;-90
2021/06/29 06:06:55;;;;;;;13.20;9.23;;;;;;;29.21;43.59;99956.28;5029437;27;100862;-90
2021/06/29 06:09:20;;;;;;;11.60;9.27;;;;;;;29.91;42.34;99960.53;5035583;27;97029;-89
2021/06/29 06:11:46;;;;;;;11.68;8.77;;;;;;;30.00;42.18;99967.50;5034604;27;96932;-89
2021/06/29 06:14:11;;;;;;;12.93;9.02;;;;;;;30.24;41.20;99970.97;5035079;27;100509;-90
2021/06/29 06:16:37;;;;;;;13.20;9.25;;;;;;;30.63;40.68;99964.34;5054343;27;101373;-93
2021/06/29 06:19:04;;;;;;;14.95;9.25;;;;;;;31.07;39.94;99963.41;5036100;27;96983;-89
2021/06/29 06:21:30;;;;;;;16.77;9.82;;;;;;;31.85;37.92;99961.50;5044198;27;97181;-90
2021/06/29 06:23:55;;;;;;;16.67;9.18;;;;;;;31.95;38.34;99956.63;5026516;27;101655;-91
2021/06/29 06:26:21;;;;;;;12.75;8.25;;;;;;;32.52;37.41;99951.03;5032503;27;101383;-90
2021/06/29 06:28:46;;;;;;;15.93;8.38;;;;;;;33.18;36.67;99953.91;5039412;27;97171;-90
2021/06/29 06:31:12;;;;;;;17.30;8.40;;;;;;;33.86;35.27;99958.25;5036424;27;97595;-89
2021/06/29 06:33:38;;;;;;;20.30;8.18;;;;;;;33.95;34.83;99963.28;5074491;27;98624;-91
2021/06/29 06:36:03;;;;;;;10.15;8.50;;;;;;;33.77;35.36;99969.41;5062973;27;97264;-91
2021/06/29 06:38:29;;;;;;;12.32;8.38;;;;;;;34.46;34.08;99973.38;5056601;27;96835;-87
2021/06/29 06:40:56;;;;;;;11.30;8.30;;;;;;;34.77;33.05;99981.84;5053991;27;97436;-89
2021/06/29 06:43:22;;;;;;;13.80;8.25;;;;;;;34.87;32.73;99976.75;5035272;27;101787;-88
2021/06/29 06:45:47;;;;;;;11.68;8.13;;;;;;;34.87;32.90;99980.31;5036404;27;100133;-86
2021/06/29 06:48:13;;;;;;;11.48;8.10;;;;;;;35.02;32.41;99982.72;5051235;27;96957;-87
2021/06/29 06:50:39;;;;;;;13.80;9.13;;;;;;;34.41;33.22;99996.84;5019948;27;97119;-88
2021/06/29 06:53:04;;;;;;;12.70;9.45;;;;;;;34.12;34.39;99990.06;5020476;27;101676;-88
2021/06/29 06:55:30;;;;;;;11.88;10.32;;;;;;;34.06;34.47;99985.47;5039021;27;101120;-88
2021/06/29 06:57:56;;;;;;;12.43;9.45;;;;;;;34.44;34.23;99993.69;5056554;27;97140;-89
2021/06/29 07:00:23;;;;;;;11.48;8.63;;;;;;;34.95;33.93;99987.41;5056422;27;97148;-87
2021/06/29 07:02:50;;;;;;;11.18;9.23;;;;;;;35.36;33.31;99983.34;5041837;27;99793;-91
2021/06/29 07:05:16;;;;;;;15.23;8.98;;;;;;;35.27;33.73;99979.22;5036031;27;98801;-90
2021/06/29 07:07:42;;;;;;;11.02;9.48;;;;;;;35.02;33.98;99980.00;5051377;27;96994;-90
2021/06/29 07:10:08;;;;;;;12.45;9.70;;;;;;;34.45;34.49;99979.06;5053914;27;97158;-90
2021/06/29 07:12:34;;;;;;;12.93;10.15;;;;;;;34.42;34.39;99974.88;5042667;27;101164;-92
2021/06/29 07:14:59;;;;;;;10.32;9.23;;;;;;;34.82;34.74;99960.19;5048568;27;97262;-82
2021/06/29 07:17:25;;;;;;;9.40;8.60;;;;;;;34.97;33.85;99962.63;5049709;27;97280;-82
2021/06/29 07:19:51;;;;;;;11.50;8.80;;;;;;;34.35;34.38;99962.31;5071544;27;96912;-83
2021/06/29 07:22:18;;;;;;;12.27;9.20;;;;;;;33.83;34.85;99958.69;5036384;27;101798;-83
2021/06/29 07:24:44;;;;;;;12.13;9.15;;;;;;;33.13;35.94;99968.13;5042200;27;101255;-84
2021/06/29 07:27:09;;;;;;;9.80;8.52;;;;;;;32.75;37.20;99964.25;5052054;27;97288;-82
2021/06/29 07:29:36;;;;;;;9.75;8.75;;;;;;;32.01;38.56;99958.53;5054292;27;96839;-86
2021/06/29 07:32:03;;;;;;;11.93;8.10;;;;;;;31.97;38.03;99942.81;5036708;27;101003;-91
2021/06/29 07:34:28;;;;;;;9.98;8.60;;;;;;;31.80;38.23;99947.72;5044049;27;98481;-90
2021/06/29 07:36:55;;;;;;;10.95;8.07;;;;;;;32.10;37.66;99942.91;5047186;27;96967;-92
2021/06/29 07:39:21;;;;;;;12.10;8.63;;;;;;;31.63;38.46;99947.19;5043087;27;97168;-84
2021/06/29 07:41:46;;;;;;;12.65;8.35;;;;;;;31.55;38.59;99948.19;5053011;27;101508;-89
2021/06/29 07:44:12;;;;;;;11.10;7.97;;;;;;;31.33;38.88;99949.25;5033804;27;101416;-92
2021/06/29 07:46:37;;;;;;;9.73;7.47;;;;;;;31.61;37.77;99943.84;5030224;27;98004;-89
2021/06/29 07:49:03;;;;;;;11.00;8.90;;;;;;;31.47;38.28;99955.63;5049446;27;97403;-90
2021/06/29 07:51:29;;;;;;;11.30;8.45;;;;;;;32.32;37.51;99948.22;5052536;27;101832;-91
2021/06/29 07:53:55;;;;;;;9.75;7.13;;;;;;;33.93;35.71;99948.22;5026839;27;99854;-90
2021/06/29 07:56:21;;;;;;;9.20;8.10;;;;;;;34.58;34.23;99942.75;5068063;27;97132;-85
2021/06/29 07:58:46;;;;;;;9.57;7.20;;;;;;;34.40;34.53;99946.16;5046483;27;97237;-86
2021/06/29 08:01:14;;;;;;;10.65;7.90;;;;;;;34.34;34.62;99950.59;5028728;27;101358;-88
2021/06/29 08:03:40;;;;;;;8.10;7.30;;;;;;;34.90;34.24;99935.41;5031685;27;101089;-84
2021/06/29 08:06:06;;;;;;;9.88;8.38;;;;;;;35.35;33.70;99929.84;5044438;27;97236;-83
2021/06/29 08:08:32;;;;;;;14.27;8.30;;;;;;;34.00;34.22;99929.94;5040814;27;98025;-88
2021/06/29 08:11:02;;;;;;;12.95;8.75;;;;;;;33.14;34.98;99947.22;5041187;27;101123;-86
2021/06/29 08:13:27;;;;;;;11.00;7.35;;;;;;;34.01;34.01;99942.53;5043199;27;97366;-86
2021/06/29 08:15:53;;;;;;;11.10;8.30;;;;;;;34.55;33.37;99937.72;5040720;27;96793;-89
2021/06/29 08:18:19;;;;;;;9.93;6.90;;;;;;;34.97;33.05;99929.91;5028310;27;97008;-86
2021/06/29 08:20:46;;;;;;;9.85;6.47;;;;;;;34.07;32.74;99925.38;5033345;27;102065;-86
2021/06/29 08:23:13;;;;;;;13.30;6.78;;;;;;;34.25;33.06;99933.66;5026397;27;101577;-85
2021/06/29 08:25:40;;;;;;;9.02;7.13;;;;;;;34.76;32.68;99931.09;5034836;27;96917;-86
2021/06/29 08:28:06;;;;;;;15.27;6.25;;;;;;;33.73;33.61;99934.63;5027250;27;97377;-83
2021/06/29 08:30:32;;;;;;;9.07;6.38;;;;;;;33.24;34.58;99930.47;5030243;27;101140;-91
2021/06/29 08:32:58;;;;;;;8.60;6.35;;;;;;;32.80;35.92;99934.59;5024125;27;101590;-90
2021/06/29 08:35:25;;;;;;;10.25;6.40;;;;;;;32.55;37.07;99927.03;5047400;27;97433;-90
2021/06/29 08:37:51;;;;;;;8.00;6.03;;;;;;;32.38;36.14;99939.28;5026440;27;97315;-91
2021/06/29 08:40:16;;;;;;;12.13;6.18;;;;;;;32.39;35.99;99933.63;5052078;27;98542;-91
2021/06/29 08:42:42;;;;;;;7.95;6.40;;;;;;;32.43;35.66;99925.91;5049765;27;101356;-93
2021/06/29 08:45:11;;;;;;;7.53;6.38;;;;;;;32.47;35.45;99922.63;5049334;27;97173;-88
2021/06/29 08:47:38;;;;;;;9.40;6.18;;;;;;;32.33;35.75;99915.44;5045108;27;97225;-87
2021/06/29 08:50:05;;;;;;;11.20;6.00;;;;;;;31.86;36.40;99913.53;5047979;27;98465;-89
2021/06/29 08:52:31;;;;;;;7.72;6.00;;;;;;;31.43;36.65;99927.25;5030885;27;99907;-88
2021/06/29 08:54:57;;;;;;;6.28;5.18;;;;;;;31.31;35.41;99924.19;5032199;27;97415;-87
2021/06/29 08:57:23;;;;;;;8.05;5.30;;;;;;;30.96;35.97;99924.09;5034007;27;97108;-86
2021/06/29 08:59:49;;;;;;;7.13;5.25;;;;;;;30.75;35.93;99915.94;5033907;27;101317;-87
2021/06/29 09:02:16;;;;;;;8.30;5.03;;;;;;;30.53;36.18;99918.63;5032762;27;101720;-86
2021/06/29 09:04:42;;;;;;;6.97;5.00;;;;;;;30.60;35.60;99916.00;5047156;27;97273;-87
2021/06/29 09:07:21;;;;;;;5.57;4.60;;;;;;;30.74;35.29;99903.44;5053925;27;96955;-86
2021/06/29 09:09:54;;;;;;;6.05;4.60;;;;;;;30.82;35.29;99901.47;5031468;27;101580;-88
2021/06/29 09:12:43;;;;;;;7.60;5.05;;;;;;;30.87;36.07;99895.47;5039407;27;100155;-82
2021/06/29 09:15:24;;;;;;;6.82;5.30;;;;;;;31.04;35.89;99901.44;5057227;27;96747;-87
2021/06/29 09:17:51;;;;;;;10.68;5.70;;;;;;;30.97;36.30;99895.13;5072718;27;97106;-89
2021/06/29 09:20:28;;;;;;;9.90;4.70;;;;;;;30.87;36.59;99887.34;5060571;27;100056;-82
2021/06/29 09:22:56;;;;;;;5.80;4.93;;;;;;;30.74;36.33;99881.75;5076526;27;98427;-91
2021/06/29 09:25:27;;;;;;;6.47;4.80;;;;;;;30.54;36.29;99886.97;5057294;27;96812;-91
2021/06/29 09:27:53;;;;;;;6.95;4.40;;;;;;;30.55;36.15;99883.25;5041444;27;97390;-91
2021/06/29 09:30:30;;;;;;;6.80;4.57;;;;;;;30.22;36.29;99875.59;5056972;27;101252;-89
2021/06/29 09:33:02;;;;;;;6.22;4.38;;;;;;;30.06;36.53;99873.94;5049029;27;101615;-84
2021/06/29 09:35:28;;;;;;;5.78;4.53;;;;;;;30.04;36.24;99867.03;5052227;27;97097;-87
2021/06/29 09:37:55;;;;;;;5.72;4.90;;;;;;;29.80;37.44;99858.19;5051753;27;97100;-86
2021/06/29 09:40:21;;;;;;;9.45;5.43;;;;;;;29.58;36.94;99851.81;5056023;27;101364;-87
2021/06/29 09:42:47;;;;;;;11.55;5.38;;;;;;;29.53;36.96;99852.41;5074234;27;97457;-87
2021/06/29 09:45:37;;;;;;;9.55;5.75;;;;;;;29.59;36.77;99840.00;5038682;27;97252;-86
2021/06/29 09:48:08;;;;;;;6.97;4.43;;;;;;;29.85;36.61;99836.84;5035335;27;97297;-87
2021/06/29 09:50:46;;;;;;;5.88;4.35;;;;;;;29.96;36.63;99839.06;5044874;27;101121;-87
2021/06/29 09:53:34;;;;;;;6.03;4.30;;;;;;;29.89;36.05;99829.19;5070544;27;101173;-86
2021/06/29 09:56:02;;;;;;;6.13;3.90;;;;;;;29.96;35.45;99821.97;5038949;27;96984;-86
2021/06/29 09:58:31;;;;;;;5.70;3.47;;;;;;;29.87;35.52;99815.00;5055498;27;97556;-86
2021/06/29 10:00:58;;;;;;;6.95;3.72;;;;;;;29.89;35.26;99818.34;5056413;27;101897;-86
2021/06/29 10:03:28;;;;;;;5.05;3.70;;;;;;;29.92;35.54;99813.41;5053795;27;97863;-86
2021/06/29 10:05:55;;;;;;;;;;;;;;;30.04;35.85;99815.63;5071767;27;97302;-87
2021/06/29 10:08:41;;;;;;;5.43;3.63;;;;;;;30.16;35.86;99814.06;5056521;27;96845;-87
2021/06/29 10:11:16;;;;;;;3.95;3.55;;;;;;;30.10;36.26;99828.38;5062581;27;101103;-86
2021/06/29 10:14:06;;;;;;;4.03;3.42;;;;;;;30.05;35.42;99822.69;5079582;27;101109;-87
2021/06/29 10:16:51;;;;;;;6.80;4.25;;;;;;;30.11;35.62;99833.59;5056154;27;97229;-87
2021/06/29 10:19:47;;;;;;;5.50;4.43;;;;;;;30.16;35.76;99833.03;5039712;27;96928;-83
2021/06/29 10:22:13;;;;;;;5.15;4.10;;;;;;;30.13;35.76;99836.09;5042365;27;101512;-87
2021/06/29 10:24:39;;;;;;;5.72;4.32;;;;;;;30.15;36.26;99832.19;5045104;27;101259;-86
2021/06/29 10:27:07;;;;;;;6.55;3.72;;;;;;;30.29;35.16;99829.66;5051165;27;97051;-87
2021/06/29 10:29:34;;;;;;;7.13;3.65;;;;;;;30.27;34.37;99818.19;5043455;27;98061;-85
2021/06/29 10:32:06;;;;;;;4.50;3.47;;;;;;;30.40;34.13;99824.59;5054530;27;101303;-86
2021/06/29 10:34:32;;;;;;;5.45;3.40;;;;;;;30.30;34.06;99806.97;5052212;27;98438;-86
2021/06/29 10:36:58;;;;;;;8.43;3.92;;;;;;;30.28;34.41;99819.84;5055110;27;97068;-86
2021/06/29 10:39:27;;;;;;;6.65;3.95;;;;;;;30.19;33.88;99816.41;5055879;27;96736;-85
2021/06/29 10:41:57;;;;;;;4.70;3.60;;;;;;;30.19;33.74;99817.22;5053824;27;101107;-83
2021/06/29 10:44:23;;;;;;;4.07;3.50;;;;;;;30.32;34.41;99811.16;5053378;27;101581;-86
2021/06/29 10:46:55;;;;;;;4.85;3.20;;;;;;;30.19;34.90;99827.22;5054404;27;97330;-85
2021/06/29 10:49:37;;;;;;;7.30;3.90;;;;;;;30.11;34.73;99828.19;5055519;27;96697;-85
2021/06/29 10:52:30;;;;;;;5.18;3.85;;;;;;;29.79;35.15;99821.38;5056439;27;99169;-86
2021/06/29 10:55:09;;;;;;;5.40;3.70;;;;;;;29.98;34.86;99820.75;5073690;27;98203;-86
2021/06/29 10:57:38;;;;;;;4.05;3.65;;;;;;;30.06;36.10;99822.50;5038021;27;96852;-86
2021/06/29 11:00:22;;;;;;;5.03;3.65;;;;;;;30.09;35.57;99818.59;5071731;27;96700;-84
2021/06/29 11:02:58;;;;;;;5.40;3.33;;;;;;;30.13;34.69;99809.06;5068395;27;98151;-85
2021/06/29 11:05:25;;;;;;;5.22;3.75;;;;;;;30.07;34.38;99805.25;5052943;27;101136;-85
2021/06/29 11:07:51;;;;;;;4.45;2.92;;;;;;;29.89;33.97;99818.34;5036312;27;97528;-86
2021/06/29 11:10:31;;;;;;;4.53;3.10;;;;;;;30.05;34.56;99809.16;5043582;27;97098;-83
2021/06/29 11:12:59;;;;;;;4.63;3.35;;;;;;;30.13;33.86;99814.47;5022611;27;101592;-82
2021/06/29 11:15:49;;;;;;;3.60;3.28;;;;;;;30.04;34.23;99802.09;5052251;27;101415;-85
2021/06/29 11:18:15;;;;;;;;;;;;;;;30.01;34.48;99793.31;5055839;27;97415;-86
2021/06/29 11:20:52;;;;;;;5.78;3.75;;;;;;;30.21;34.59;99784.59;5052164;27;96695;-84
2021/06/29 11:23:26;;;;;;;5.60;4.03;;;;;;;30.13;34.05;99788.22;5048300;27;101420;-81
2021/06/29 11:25:53;;;;;;;6.45;3.72;;;;;;;29.99;34.61;99779.16;5053596;27;101317;-84
2021/06/29 11:28:37;;;;;;;6.78;4.22;;;;;;;29.86;34.69;99768.16;5039746;27;96903;-83